sensor_id;sensor_type;location;lat;lon;timestamp;temperature;humidity
80132;SHT30;69442;51.442;10.564;2023-12-04T00:02:20;-1.23;72.46
80132;SHT30;69442;51.442;10.564;2023-12-04T00:04:45;-1.25;72.55
80132;SHT30;69442;51.442;10.564;2023-12-04T00:07:11;-1.30;72.81
80132;SHT30;69442;51.442;10.564;2023-12-04T00:09:36;-1.28;72.70
80132;SHT30;69442;51.442;10.564;2023-12-04T00:12:02;-1.26;72.71
80132;SHT30;69442;51.442;10.564;2023-12-04T00:14:27;-1.28;72.70
80132;SHT30;69442;51.442;10.564;2023-12-04T00:16:53;-1.35;72.76
80132;SHT30;69442;51.442;10.564;2023-12-04T00:19:18;-1.43;72.94
80132;SHT30;69442;51.442;10.564;2023-12-04T00:21:43;-1.37;73.02
80132;SHT30;69442;51.442;10.564;2023-12-04T00:24:09;-1.32;72.99
80132;SHT30;69442;51.442;10.564;2023-12-04T00:26:34;-1.32;73.09
80132;SHT30;69442;51.442;10.564;2023-12-04T00:29:00;-1.29;72.92
80132;SHT30;69442;51.442;10.564;2023-12-04T00:31:25;-1.29;72.67
80132;SHT30;69442;51.442;10.564;2023-12-04T00:33:51;-1.29;72.83
80132;SHT30;69442;51.442;10.564;2023-12-04T00:36:16;-1.25;72.94
80132;SHT30;69442;51.442;10.564;2023-12-04T00:38:42;-1.37;72.72
80132;SHT30;69442;51.442;10.564;2023-12-04T00:41:07;-1.53;73.19
80132;SHT30;69442;51.442;10.564;2023-12-04T00:43:32;-1.42;74.25
80132;SHT30;69442;51.442;10.564;2023-12-04T00:45:58;-1.29;74.47
80132;SHT30;69442;51.442;10.564;2023-12-04T00:48:23;-1.17;74.64
80132;SHT30;69442;51.442;10.564;2023-12-04T00:50:50;-1.09;75.19
80132;SHT30;69442;51.442;10.564;2023-12-04T00:53:16;-1.03;73.71
80132;SHT30;69442;51.442;10.564;2023-12-04T00:55:41;-1.03;72.57
80132;SHT30;69442;51.442;10.564;2023-12-04T00:58:06;-1.03;72.68
80132;SHT30;69442;51.442;10.564;2023-12-04T01:00:32;-1.09;72.56
80132;SHT30;69442;51.442;10.564;2023-12-04T01:02:57;-1.09;72.74
80132;SHT30;69442;51.442;10.564;2023-12-04T01:05:22;-1.15;72.98
80132;SHT30;69442;51.442;10.564;2023-12-04T01:07:48;-1.16;72.79
80132;SHT30;69442;51.442;10.564;2023-12-04T01:10:13;-1.19;73.10
80132;SHT30;69442;51.442;10.564;2023-12-04T01:12:39;-1.23;73.00
80132;SHT30;69442;51.442;10.564;2023-12-04T01:15:04;-1.26;72.97
80132;SHT30;69442;51.442;10.564;2023-12-04T01:17:30;-1.30;73.53
80132;SHT30;69442;51.442;10.564;2023-12-04T01:19:55;-1.29;73.20
80132;SHT30;69442;51.442;10.564;2023-12-04T01:22:22;-1.22;73.29
80132;SHT30;69442;51.442;10.564;2023-12-04T01:24:47;-1.28;73.17
80132;SHT30;69442;51.442;10.564;2023-12-04T01:27:13;-1.25;73.09
80132;SHT30;69442;51.442;10.564;2023-12-04T01:29:38;-1.26;73.18
80132;SHT30;69442;51.442;10.564;2023-12-04T01:32:04;-1.26;73.12
80132;SHT30;69442;51.442;10.564;2023-12-04T01:34:30;-1.39;72.99
80132;SHT30;69442;51.442;10.564;2023-12-04T01:36:55;-1.57;73.68
80132;SHT30;69442;51.442;10.564;2023-12-04T01:39:20;-1.57;73.62
80132;SHT30;69442;51.442;10.564;2023-12-04T01:41:46;-1.44;73.87
80132;SHT30;69442;51.442;10.564;2023-12-04T01:44:11;-1.42;73.65
80132;SHT30;69442;51.442;10.564;2023-12-04T01:46:37;-1.42;73.56
80132;SHT30;69442;51.442;10.564;2023-12-04T01:49:02;-1.36;73.68
80132;SHT30;69442;51.442;10.564;2023-12-04T01:51:28;-1.35;73.42
80132;SHT30;69442;51.442;10.564;2023-12-04T01:53:55;-1.32;73.37
80132;SHT30;69442;51.442;10.564;2023-12-04T01:56:21;-1.39;73.20
80132;SHT30;69442;51.442;10.564;2023-12-04T01:58:46;-1.48;73.20
80132;SHT30;69442;51.442;10.564;2023-12-04T02:01:12;-1.48;73.84
80132;SHT30;69442;51.442;10.564;2023-12-04T02:03:37;-1.42;73.92
80132;SHT30;69442;51.442;10.564;2023-12-04T02:06:03;-1.43;74.02
80132;SHT30;69442;51.442;10.564;2023-12-04T02:08:30;-1.37;73.89
80132;SHT30;69442;51.442;10.564;2023-12-04T02:10:56;-1.33;74.71
80132;SHT30;69442;51.442;10.564;2023-12-04T02:13:21;-1.29;75.01
80132;SHT30;69442;51.442;10.564;2023-12-04T02:15:49;-1.26;73.89
80132;SHT30;69442;51.442;10.564;2023-12-04T02:18:17;-1.23;73.80
80132;SHT30;69442;51.442;10.564;2023-12-04T02:20:43;-1.29;74.05
80132;SHT30;69442;51.442;10.564;2023-12-04T02:23:08;-1.23;73.99
80132;SHT30;69442;51.442;10.564;2023-12-04T02:25:34;-1.23;74.00
80132;SHT30;69442;51.442;10.564;2023-12-04T02:28:01;-1.25;73.91
80132;SHT30;69442;51.442;10.564;2023-12-04T02:30:30;-1.28;73.94
80132;SHT30;69442;51.442;10.564;2023-12-04T02:32:57;-1.32;73.89
80132;SHT30;69442;51.442;10.564;2023-12-04T02:35:27;-1.33;74.42
80132;SHT30;69442;51.442;10.564;2023-12-04T02:37:54;-1.30;74.25
80132;SHT30;69442;51.442;10.564;2023-12-04T02:40:20;-1.29;74.24
80132;SHT30;69442;51.442;10.564;2023-12-04T02:42:45;-1.28;74.17
80132;SHT30;69442;51.442;10.564;2023-12-04T02:45:10;-1.28;74.28
80132;SHT30;69442;51.442;10.564;2023-12-04T02:47:36;-1.26;74.28
80132;SHT30;69442;51.442;10.564;2023-12-04T02:50:01;-1.26;74.37
80132;SHT30;69442;51.442;10.564;2023-12-04T02:52:27;-1.29;74.29
80132;SHT30;69442;51.442;10.564;2023-12-04T02:54:52;-1.26;74.56
80132;SHT30;69442;51.442;10.564;2023-12-04T02:57:17;-1.23;74.43
80132;SHT30;69442;51.442;10.564;2023-12-04T02:59:43;-1.26;74.38
80132;SHT30;69442;51.442;10.564;2023-12-04T03:02:08;-1.26;74.76
80132;SHT30;69442;51.442;10.564;2023-12-04T03:04:34;-1.26;75.02
80132;SHT30;69442;51.442;10.564;2023-12-04T03:07:00;-1.26;73.98
80132;SHT30;69442;51.442;10.564;2023-12-04T03:09:25;-1.28;74.03
80132;SHT30;69442;51.442;10.564;2023-12-04T03:11:51;-1.26;74.21
80132;SHT30;69442;51.442;10.564;2023-12-04T03:14:16;-1.23;73.97
80132;SHT30;69442;51.442;10.564;2023-12-04T03:16:41;-1.23;73.81
80132;SHT30;69442;51.442;10.564;2023-12-04T03:19:07;-1.30;73.78
80132;SHT30;69442;51.442;10.564;2023-12-04T03:21:32;-1.30;74.09
80132;SHT30;69442;51.442;10.564;2023-12-04T03:23:58;-1.30;74.11
80132;SHT30;69442;51.442;10.564;2023-12-04T03:26:23;-1.30;74.02
80132;SHT30;69442;51.442;10.564;2023-12-04T03:28:48;-1.36;74.18
80132;SHT30;69442;51.442;10.564;2023-12-04T03:31:14;-1.35;74.42
80132;SHT30;69442;51.442;10.564;2023-12-04T03:33:39;-1.30;74.16
80132;SHT30;69442;51.442;10.564;2023-12-04T03:36:05;-1.28;74.11
80132;SHT30;69442;51.442;10.564;2023-12-04T03:38:30;-1.26;74.43
80132;SHT30;69442;51.442;10.564;2023-12-04T03:40:55;-1.25;74.22
80132;SHT30;69442;51.442;10.564;2023-12-04T03:43:21;-1.23;74.18
80132;SHT30;69442;51.442;10.564;2023-12-04T03:45:46;-1.22;74.11
80132;SHT30;69442;51.442;10.564;2023-12-04T03:48:12;-1.26;74.20
80132;SHT30;69442;51.442;10.564;2023-12-04T03:50:37;-1.28;74.33
80132;SHT30;69442;51.442;10.564;2023-12-04T03:53:03;-1.28;74.44
80132;SHT30;69442;51.442;10.564;2023-12-04T03:55:28;-1.28;74.19
80132;SHT30;69442;51.442;10.564;2023-12-04T03:57:54;-1.26;74.29
80132;SHT30;69442;51.442;10.564;2023-12-04T04:00:20;-1.26;74.24
80132;SHT30;69442;51.442;10.564;2023-12-04T04:02:45;-1.26;74.35
80132;SHT30;69442;51.442;10.564;2023-12-04T04:05:11;-1.26;74.39
80132;SHT30;69442;51.442;10.564;2023-12-04T04:07:36;-1.26;74.41
80132;SHT30;69442;51.442;10.564;2023-12-04T04:10:02;-1.28;74.47
80132;SHT30;69442;51.442;10.564;2023-12-04T04:12:29;-1.25;74.39
80132;SHT30;69442;51.442;10.564;2023-12-04T04:14:55;-1.30;74.48
80132;SHT30;69442;51.442;10.564;2023-12-04T04:17:20;-1.26;74.33
80132;SHT30;69442;51.442;10.564;2023-12-04T04:19:45;-1.28;74.52
80132;SHT30;69442;51.442;10.564;2023-12-04T04:22:11;-1.25;74.82
80132;SHT30;69442;51.442;10.564;2023-12-04T04:24:36;-1.29;74.33
80132;SHT30;69442;51.442;10.564;2023-12-04T04:27:01;-1.25;74.40
80132;SHT30;69442;51.442;10.564;2023-12-04T04:29:27;-1.23;74.73
80132;SHT30;69442;51.442;10.564;2023-12-04T04:31:52;-1.22;74.63
80132;SHT30;69442;51.442;10.564;2023-12-04T04:34:20;-1.20;74.49
80132;SHT30;69442;51.442;10.564;2023-12-04T04:36:45;-1.19;74.39
80132;SHT30;69442;51.442;10.564;2023-12-04T04:41:37;-1.22;74.53
80132;SHT30;69442;51.442;10.564;2023-12-04T04:44:03;-1.22;74.58
80132;SHT30;69442;51.442;10.564;2023-12-04T04:46:28;-1.23;74.38
80132;SHT30;69442;51.442;10.564;2023-12-04T04:48:53;-1.23;74.30
80132;SHT30;69442;51.442;10.564;2023-12-04T04:51:19;-1.22;74.57
80132;SHT30;69442;51.442;10.564;2023-12-04T04:53:44;-1.23;74.60
80132;SHT30;69442;51.442;10.564;2023-12-04T04:56:10;-1.23;74.63
80132;SHT30;69442;51.442;10.564;2023-12-04T04:58:35;-1.28;74.57
80132;SHT30;69442;51.442;10.564;2023-12-04T05:01:01;-1.25;74.66
80132;SHT30;69442;51.442;10.564;2023-12-04T05:03:26;-1.23;74.60
80132;SHT30;69442;51.442;10.564;2023-12-04T05:05:52;-1.22;74.58
80132;SHT30;69442;51.442;10.564;2023-12-04T05:08:17;-1.20;74.41
80132;SHT30;69442;51.442;10.564;2023-12-04T05:10:42;-1.15;74.15
80132;SHT30;69442;51.442;10.564;2023-12-04T05:13:08;-1.16;74.14
80132;SHT30;69442;51.442;10.564;2023-12-04T05:15:33;-1.15;74.23
80132;SHT30;69442;51.442;10.564;2023-12-04T05:17:59;-1.15;74.14
80132;SHT30;69442;51.442;10.564;2023-12-04T05:20:24;-1.13;73.90
80132;SHT30;69442;51.442;10.564;2023-12-04T05:22:50;-1.16;74.09
80132;SHT30;69442;51.442;10.564;2023-12-04T05:25:15;-1.16;74.22
80132;SHT30;69442;51.442;10.564;2023-12-04T05:27:40;-1.25;74.01
80132;SHT30;69442;51.442;10.564;2023-12-04T05:30:06;-1.29;74.60
80132;SHT30;69442;51.442;10.564;2023-12-04T05:32:32;-1.33;74.81
80132;SHT30;69442;51.442;10.564;2023-12-04T05:34:57;-1.28;74.96
80132;SHT30;69442;51.442;10.564;2023-12-04T05:37:22;-1.39;74.73
80132;SHT30;69442;51.442;10.564;2023-12-04T05:39:48;-1.42;75.07
80132;SHT30;69442;51.442;10.564;2023-12-04T05:42:16;-1.42;74.87
80132;SHT30;69442;51.442;10.564;2023-12-04T05:44:41;-1.51;74.96
80132;SHT30;69442;51.442;10.564;2023-12-04T05:47:07;-1.44;75.33
80132;SHT30;69442;51.442;10.564;2023-12-04T05:49:33;-1.39;75.35
80132;SHT30;69442;51.442;10.564;2023-12-04T05:51:59;-1.30;74.96
80132;SHT30;69442;51.442;10.564;2023-12-04T05:54:25;-1.29;74.71
80132;SHT30;69442;51.442;10.564;2023-12-04T05:56:50;-1.37;74.76
80132;SHT30;69442;51.442;10.564;2023-12-04T05:59:16;-1.36;75.10
80132;SHT30;69442;51.442;10.564;2023-12-04T06:01:41;-1.30;74.92
80132;SHT30;69442;51.442;10.564;2023-12-04T06:04:06;-1.26;74.73
80132;SHT30;69442;51.442;10.564;2023-12-04T06:06:32;-1.28;74.55
80132;SHT30;69442;51.442;10.564;2023-12-04T06:08:57;-1.26;74.51
80132;SHT30;69442;51.442;10.564;2023-12-04T06:11:22;-1.28;74.69
80132;SHT30;69442;51.442;10.564;2023-12-04T06:13:48;-1.28;74.35
80132;SHT30;69442;51.442;10.564;2023-12-04T06:16:13;-1.29;74.38
80132;SHT30;69442;51.442;10.564;2023-12-04T06:18:38;-1.29;74.33
80132;SHT30;69442;51.442;10.564;2023-12-04T06:21:04;-1.30;74.65
80132;SHT30;69442;51.442;10.564;2023-12-04T06:23:30;-1.30;74.59
80132;SHT30;69442;51.442;10.564;2023-12-04T06:25:56;-1.26;74.43
80132;SHT30;69442;51.442;10.564;2023-12-04T06:28:21;-1.23;74.38
80132;SHT30;69442;51.442;10.564;2023-12-04T06:30:47;-1.25;74.21
80132;SHT30;69442;51.442;10.564;2023-12-04T06:33:13;-1.23;74.21
80132;SHT30;69442;51.442;10.564;2023-12-04T06:35:40;-1.23;74.18
80132;SHT30;69442;51.442;10.564;2023-12-04T06:38:06;-1.19;74.14
80132;SHT30;69442;51.442;10.564;2023-12-04T06:40:32;-1.19;74.07
80132;SHT30;69442;51.442;10.564;2023-12-04T06:42:58;-1.20;74.06
80132;SHT30;69442;51.442;10.564;2023-12-04T06:45:24;-1.20;74.12
80132;SHT30;69442;51.442;10.564;2023-12-04T06:47:50;-1.20;74.10
80132;SHT30;69442;51.442;10.564;2023-12-04T06:50:16;-1.20;74.02
80132;SHT30;69442;51.442;10.564;2023-12-04T06:52:42;-1.26;74.12
80132;SHT30;69442;51.442;10.564;2023-12-04T06:55:07;-1.29;74.22
80132;SHT30;69442;51.442;10.564;2023-12-04T06:57:33;-1.29;74.55
80132;SHT30;69442;51.442;10.564;2023-12-04T06:59:59;-1.28;74.53
80132;SHT30;69442;51.442;10.564;2023-12-04T07:02:24;-1.28;74.70
80132;SHT30;69442;51.442;10.564;2023-12-04T07:04:49;-1.30;74.77
80132;SHT30;69442;51.442;10.564;2023-12-04T07:07:15;-1.30;75.15
80132;SHT30;69442;51.442;10.564;2023-12-04T07:09:41;-1.28;74.94
80132;SHT30;69442;51.442;10.564;2023-12-04T07:12:06;-1.28;74.93
80132;SHT30;69442;51.442;10.564;2023-12-04T07:14:32;-1.36;74.93
80132;SHT30;69442;51.442;10.564;2023-12-04T07:16:57;-1.32;75.24
80132;SHT30;69442;51.442;10.564;2023-12-04T07:19:23;-1.36;75.20
80132;SHT30;69442;51.442;10.564;2023-12-04T07:21:49;-1.33;75.31
80132;SHT30;69442;51.442;10.564;2023-12-04T07:24:15;-1.30;75.44
80132;SHT30;69442;51.442;10.564;2023-12-04T07:26:41;-1.28;75.44
80132;SHT30;69442;51.442;10.564;2023-12-04T07:29:06;-1.29;75.29
80132;SHT30;69442;51.442;10.564;2023-12-04T07:31:32;-1.28;75.50
80132;SHT30;69442;51.442;10.564;2023-12-04T07:33:58;-1.25;75.55
80132;SHT30;69442;51.442;10.564;2023-12-04T07:36:25;-1.23;75.63
80132;SHT30;69442;51.442;10.564;2023-12-04T07:38:51;-1.25;75.47
80132;SHT30;69442;51.442;10.564;2023-12-04T07:41:19;-1.26;75.54
80132;SHT30;69442;51.442;10.564;2023-12-04T07:43:44;-1.26;75.69
80132;SHT30;69442;51.442;10.564;2023-12-04T07:46:10;-1.23;75.56
80132;SHT30;69442;51.442;10.564;2023-12-04T07:48:36;-1.23;75.57
80132;SHT30;69442;51.442;10.564;2023-12-04T07:51:02;-1.23;75.64
80132;SHT30;69442;51.442;10.564;2023-12-04T07:53:27;-1.23;75.74
80132;SHT30;69442;51.442;10.564;2023-12-04T07:55:53;-1.22;75.86
80132;SHT30;69442;51.442;10.564;2023-12-04T07:58:18;-1.19;75.85
80132;SHT30;69442;51.442;10.564;2023-12-04T08:00:44;-0.98;87.60
80132;SHT30;69442;51.442;10.564;2023-12-04T08:03:10;-0.85;90.30
80132;SHT30;69442;51.442;10.564;2023-12-04T08:05:35;-0.85;89.33
80132;SHT30;69442;51.442;10.564;2023-12-04T08:08:01;-0.92;86.43
80132;SHT30;69442;51.442;10.564;2023-12-04T08:10:26;-0.92;84.50
80132;SHT30;69442;51.442;10.564;2023-12-04T08:12:52;-0.94;83.38
80132;SHT30;69442;51.442;10.564;2023-12-04T08:15:17;-0.94;82.29
80132;SHT30;69442;51.442;10.564;2023-12-04T08:17:42;-0.95;81.43
80132;SHT30;69442;51.442;10.564;2023-12-04T08:20:08;-0.96;81.06
80132;SHT30;69442;51.442;10.564;2023-12-04T08:22:41;-1.05;80.07
80132;SHT30;69442;51.442;10.564;2023-12-04T08:25:07;-0.99;79.82
80132;SHT30;69442;51.442;10.564;2023-12-04T08:27:32;-0.96;79.07
80132;SHT30;69442;51.442;10.564;2023-12-04T08:29:58;-1.02;78.31
80132;SHT30;69442;51.442;10.564;2023-12-04T08:32:23;-1.01;78.08
80132;SHT30;69442;51.442;10.564;2023-12-04T08:34:51;-0.99;77.87
80132;SHT30;69442;51.442;10.564;2023-12-04T08:37:17;-1.01;77.43
80132;SHT30;69442;51.442;10.564;2023-12-04T08:39:43;-1.05;77.06
80132;SHT30;69442;51.442;10.564;2023-12-04T08:42:08;-1.09;77.04
80132;SHT30;69442;51.442;10.564;2023-12-04T08:44:34;-1.06;76.83
80132;SHT30;69442;51.442;10.564;2023-12-04T08:46:59;-1.05;76.78
80132;SHT30;69442;51.442;10.564;2023-12-04T08:49:25;-1.05;76.72
80132;SHT30;69442;51.442;10.564;2023-12-04T08:51:51;-1.02;76.70
80132;SHT30;69442;51.442;10.564;2023-12-04T08:54:17;-1.11;76.25
80132;SHT30;69442;51.442;10.564;2023-12-04T08:56:44;-1.05;76.70
80132;SHT30;69442;51.442;10.564;2023-12-04T08:59:09;-1.03;76.74
80132;SHT30;69442;51.442;10.564;2023-12-04T09:01:35;-0.98;76.62
80132;SHT30;69442;51.442;10.564;2023-12-04T09:04:01;-0.98;76.50
80132;SHT30;69442;51.442;10.564;2023-12-04T09:06:27;-0.95;76.31
80132;SHT30;69442;51.442;10.564;2023-12-04T09:08:52;-0.96;76.21
80132;SHT30;69442;51.442;10.564;2023-12-04T09:11:17;-0.91;76.28
80132;SHT30;69442;51.442;10.564;2023-12-04T09:13:43;-0.89;76.26
80132;SHT30;69442;51.442;10.564;2023-12-04T09:16:08;-0.91;76.03
80132;SHT30;69442;51.442;10.564;2023-12-04T09:18:34;-0.85;76.19
80132;SHT30;69442;51.442;10.564;2023-12-04T09:20:59;-0.84;76.43
80132;SHT30;69442;51.442;10.564;2023-12-04T09:23:25;-0.85;76.11
80132;SHT30;69442;51.442;10.564;2023-12-04T09:25:50;-0.81;76.35
80132;SHT30;69442;51.442;10.564;2023-12-04T09:28:16;-0.80;76.22
80132;SHT30;69442;51.442;10.564;2023-12-04T09:30:41;-0.81;76.08
80132;SHT30;69442;51.442;10.564;2023-12-04T09:33:07;-0.80;76.35
80132;SHT30;69442;51.442;10.564;2023-12-04T09:35:32;-0.73;76.16
80132;SHT30;69442;51.442;10.564;2023-12-04T09:37:58;-0.78;75.92
80132;SHT30;69442;51.442;10.564;2023-12-04T09:40:23;-0.77;75.79
80132;SHT30;69442;51.442;10.564;2023-12-04T09:42:49;-0.84;75.29
80132;SHT30;69442;51.442;10.564;2023-12-04T09:45:15;-0.84;75.88
80132;SHT30;69442;51.442;10.564;2023-12-04T09:47:41;-0.87;75.60
80132;SHT30;69442;51.442;10.564;2023-12-04T09:50:07;-0.91;75.59
80132;SHT30;69442;51.442;10.564;2023-12-04T09:52:34;-0.94;75.43
80132;SHT30;69442;51.442;10.564;2023-12-04T09:55:00;-0.95;75.60
80132;SHT30;69442;51.442;10.564;2023-12-04T09:57:26;-0.85;75.91
80132;SHT30;69442;51.442;10.564;2023-12-04T09:59:52;-0.87;75.90
80132;SHT30;69442;51.442;10.564;2023-12-04T10:02:19;-0.87;75.67
80132;SHT30;69442;51.442;10.564;2023-12-04T10:04:45;-0.85;75.68
80132;SHT30;69442;51.442;10.564;2023-12-04T10:07:10;-0.84;75.60
80132;SHT30;69442;51.442;10.564;2023-12-04T10:09:36;-0.74;75.98
80132;SHT30;69442;51.442;10.564;2023-12-04T10:12:02;-0.71;76.15
80132;SHT30;69442;51.442;10.564;2023-12-04T10:14:27;-0.64;76.22
80132;SHT30;69442;51.442;10.564;2023-12-04T10:16:52;-0.71;75.08
80132;SHT30;69442;51.442;10.564;2023-12-04T10:21:49;-0.63;75.72
80132;SHT30;69442;51.442;10.564;2023-12-04T10:24:36;-0.60;75.52
80132;SHT30;69442;51.442;10.564;2023-12-04T10:27:06;-0.56;75.74
80132;SHT30;69442;51.442;10.564;2023-12-04T10:29:48;-0.58;75.05
80132;SHT30;69442;51.442;10.564;2023-12-04T10:32:20;-0.57;75.09
80132;SHT30;69442;51.442;10.564;2023-12-04T10:34:49;-0.53;75.18
80132;SHT30;69442;51.442;10.564;2023-12-04T10:37:14;-0.53;74.96
80132;SHT30;69442;51.442;10.564;2023-12-04T10:39:47;-0.60;74.46
80132;SHT30;69442;51.442;10.564;2023-12-04T10:42:26;-0.63;74.86
80132;SHT30;69442;51.442;10.564;2023-12-04T10:44:54;-0.57;75.25
80132;SHT30;69442;51.442;10.564;2023-12-04T10:47:22;-0.56;74.77
80132;SHT30;69442;51.442;10.564;2023-12-04T10:49:50;-0.58;74.18
80132;SHT30;69442;51.442;10.564;2023-12-04T10:52:17;-0.53;74.79
80132;SHT30;69442;51.442;10.564;2023-12-04T10:54:47;-0.57;74.05
80132;SHT30;69442;51.442;10.564;2023-12-04T10:57:18;-0.70;74.10
80132;SHT30;69442;51.442;10.564;2023-12-04T10:59:45;-0.78;74.42
80132;SHT30;69442;51.442;10.564;2023-12-04T11:02:20;-0.71;74.89
80132;SHT30;69442;51.442;10.564;2023-12-04T11:04:49;-0.71;74.83
80132;SHT30;69442;51.442;10.564;2023-12-04T11:07:17;-0.71;74.91
80132;SHT30;69442;51.442;10.564;2023-12-04T11:09:44;-0.64;75.32
80132;SHT30;69442;51.442;10.564;2023-12-04T11:12:14;-0.60;75.27
80132;SHT30;69442;51.442;10.564;2023-12-04T11:14:46;-0.53;75.37
80132;SHT30;69442;51.442;10.564;2023-12-04T11:17:14;-0.43;75.51
80132;SHT30;69442;51.442;10.564;2023-12-04T11:19:54;-0.43;75.16
80132;SHT30;69442;51.442;10.564;2023-12-04T11:22:21;-0.43;75.04
80132;SHT30;69442;51.442;10.564;2023-12-04T11:24:47;-0.41;75.29
80132;SHT30;69442;51.442;10.564;2023-12-04T11:27:16;-0.47;74.17
80132;SHT30;69442;51.442;10.564;2023-12-04T11:29:42;-0.53;74.41
80132;SHT30;69442;51.442;10.564;2023-12-04T11:32:14;-0.50;74.17
80132;SHT30;69442;51.442;10.564;2023-12-04T11:35:06;-0.56;74.19
80132;SHT30;69442;51.442;10.564;2023-12-04T11:37:37;-0.50;74.20
80132;SHT30;69442;51.442;10.564;2023-12-04T11:40:03;-0.58;74.13
80132;SHT30;69442;51.442;10.564;2023-12-04T11:42:30;-0.53;74.24
80132;SHT30;69442;51.442;10.564;2023-12-04T11:44:57;-0.46;74.50
80132;SHT30;69442;51.442;10.564;2023-12-04T11:47:23;-0.41;74.43
80132;SHT30;69442;51.442;10.564;2023-12-04T11:49:48;-0.46;74.19
80132;SHT30;69442;51.442;10.564;2023-12-04T11:52:14;-0.37;74.50
80132;SHT30;69442;51.442;10.564;2023-12-04T11:55:00;-0.39;74.34
80132;SHT30;69442;51.442;10.564;2023-12-04T11:57:32;-0.46;74.09
80132;SHT30;69442;51.442;10.564;2023-12-04T12:00:22;-0.40;74.36
80132;SHT30;69442;51.442;10.564;2023-12-04T12:05:19;-0.33;74.59
80132;SHT30;69442;51.442;10.564;2023-12-04T12:07:45;-0.36;74.32
80132;SHT30;69442;51.442;10.564;2023-12-04T12:10:12;-0.34;74.12
80132;SHT30;69442;51.442;10.564;2023-12-04T12:12:39;-0.47;73.87
80132;SHT30;69442;51.442;10.564;2023-12-04T12:15:08;-0.40;74.35
80132;SHT30;69442;51.442;10.564;2023-12-04T12:17:34;-0.36;74.20
80132;SHT30;69442;51.442;10.564;2023-12-04T12:19:59;-0.32;74.24
80132;SHT30;69442;51.442;10.564;2023-12-04T12:22:25;-0.30;74.65
80132;SHT30;69442;51.442;10.564;2023-12-04T12:24:51;-0.28;74.53
80132;SHT30;69442;51.442;10.564;2023-12-04T12:27:17;-0.29;74.15
80132;SHT30;69442;51.442;10.564;2023-12-04T12:29:42;-0.37;73.93
80132;SHT30;69442;51.442;10.564;2023-12-04T12:32:08;-0.33;74.43
80132;SHT30;69442;51.442;10.564;2023-12-04T12:34:33;-0.26;74.54
80132;SHT30;69442;51.442;10.564;2023-12-04T12:37:02;-0.23;74.70
80132;SHT30;69442;51.442;10.564;2023-12-04T12:39:29;-0.26;74.11
80132;SHT30;69442;51.442;10.564;2023-12-04T12:41:55;-0.28;73.72
80132;SHT30;69442;51.442;10.564;2023-12-04T12:44:20;-0.32;73.58
80132;SHT30;69442;51.442;10.564;2023-12-04T12:46:50;-0.26;74.27
80132;SHT30;69442;51.442;10.564;2023-12-04T12:49:19;-0.25;74.27
80132;SHT30;69442;51.442;10.564;2023-12-04T12:51:47;-0.22;74.19
80132;SHT30;69442;51.442;10.564;2023-12-04T12:54:13;-0.21;74.30
80132;SHT30;69442;51.442;10.564;2023-12-04T12:56:39;-0.21;74.26
80132;SHT30;69442;51.442;10.564;2023-12-04T12:59:05;-0.18;73.91
80132;SHT30;69442;51.442;10.564;2023-12-04T13:01:32;-0.21;74.03
80132;SHT30;69442;51.442;10.564;2023-12-04T13:03:57;-0.25;73.54
80132;SHT30;69442;51.442;10.564;2023-12-04T13:06:23;-0.19;74.06
80132;SHT30;69442;51.442;10.564;2023-12-04T13:08:49;-0.19;73.58
80132;SHT30;69442;51.442;10.564;2023-12-04T13:11:14;-0.15;74.03
80132;SHT30;69442;51.442;10.564;2023-12-04T13:13:39;-0.12;74.31
80132;SHT30;69442;51.442;10.564;2023-12-04T13:16:05;-0.15;73.45
80132;SHT30;69442;51.442;10.564;2023-12-04T13:18:31;-0.12;73.48
80132;SHT30;69442;51.442;10.564;2023-12-04T13:21:00;-0.11;73.88
80132;SHT30;69442;51.442;10.564;2023-12-04T13:23:25;-0.11;73.69
80132;SHT30;69442;51.442;10.564;2023-12-04T13:25:51;-0.09;73.44
80132;SHT30;69442;51.442;10.564;2023-12-04T13:28:16;-0.11;73.77
80132;SHT30;69442;51.442;10.564;2023-12-04T13:30:41;-0.09;74.19
80132;SHT30;69442;51.442;10.564;2023-12-04T13:33:08;-0.09;73.60
80132;SHT30;69442;51.442;10.564;2023-12-04T13:35:33;-0.04;73.99
80132;SHT30;69442;51.442;10.564;2023-12-04T13:37:58;-0.02;74.44
80132;SHT30;69442;51.442;10.564;2023-12-04T13:40:24;-0.02;74.07
80132;SHT30;69442;51.442;10.564;2023-12-04T13:42:53;-0.02;73.89
80132;SHT30;69442;51.442;10.564;2023-12-04T13:45:37;-0.08;73.31
80132;SHT30;69442;51.442;10.564;2023-12-04T13:48:03;-0.04;73.90
80132;SHT30;69442;51.442;10.564;2023-12-04T13:50:28;-0.01;74.27
80132;SHT30;69442;51.442;10.564;2023-12-04T13:52:54;0.01;74.18
80132;SHT30;69442;51.442;10.564;2023-12-04T13:55:25;0.02;73.78
80132;SHT30;69442;51.442;10.564;2023-12-04T13:58:12;-0.04;73.30
80132;SHT30;69442;51.442;10.564;2023-12-04T14:00:57;-0.13;72.91
80132;SHT30;69442;51.442;10.564;2023-12-04T14:03:23;-0.15;73.24
80132;SHT30;69442;51.442;10.564;2023-12-04T14:05:48;-0.11;73.46
80132;SHT30;69442;51.442;10.564;2023-12-04T14:08:14;-0.19;73.19
80132;SHT30;69442;51.442;10.564;2023-12-04T14:10:39;-0.18;73.30
80132;SHT30;69442;51.442;10.564;2023-12-04T14:13:04;-0.12;73.74
80132;SHT30;69442;51.442;10.564;2023-12-04T14:15:30;-0.11;73.51
80132;SHT30;69442;51.442;10.564;2023-12-04T14:17:55;-0.08;74.09
80132;SHT30;69442;51.442;10.564;2023-12-04T14:20:20;-0.02;74.48
80132;SHT30;69442;51.442;10.564;2023-12-04T14:22:47;-0.01;74.59
80132;SHT30;69442;51.442;10.564;2023-12-04T14:25:13;0.02;74.03
80132;SHT30;69442;51.442;10.564;2023-12-04T14:27:39;0.01;74.68
80132;SHT30;69442;51.442;10.564;2023-12-04T14:30:11;0.03;74.39
80132;SHT30;69442;51.442;10.564;2023-12-04T14:32:36;0.03;74.58
80132;SHT30;69442;51.442;10.564;2023-12-04T14:35:04;0.06;74.53
80132;SHT30;69442;51.442;10.564;2023-12-04T14:37:29;0.06;74.88
80132;SHT30;69442;51.442;10.564;2023-12-04T14:39:55;0.05;74.96
80132;SHT30;69442;51.442;10.564;2023-12-04T14:42:21;0.10;74.90
80132;SHT30;69442;51.442;10.564;2023-12-04T14:44:47;0.10;75.01
80132;SHT30;69442;51.442;10.564;2023-12-04T14:47:12;0.09;75.09
80132;SHT30;69442;51.442;10.564;2023-12-04T14:49:38;0.09;75.27
80132;SHT30;69442;51.442;10.564;2023-12-04T14:52:03;0.09;75.03
80132;SHT30;69442;51.442;10.564;2023-12-04T14:54:31;0.12;74.97
80132;SHT30;69442;51.442;10.564;2023-12-04T14:57:18;0.05;74.13
80132;SHT30;69442;51.442;10.564;2023-12-04T15:00:10;0.10;74.91
80132;SHT30;69442;51.442;10.564;2023-12-04T15:02:36;0.12;74.81
80132;SHT30;69442;51.442;10.564;2023-12-04T15:05:21;0.13;74.87
80132;SHT30;69442;51.442;10.564;2023-12-04T15:08:05;0.13;75.04
80132;SHT30;69442;51.442;10.564;2023-12-04T15:10:40;0.13;75.00
80132;SHT30;69442;51.442;10.564;2023-12-04T15:13:24;0.14;74.93
80132;SHT30;69442;51.442;10.564;2023-12-04T15:16:08;0.12;75.14
80132;SHT30;69442;51.442;10.564;2023-12-04T15:18:56;0.12;75.35
80132;SHT30;69442;51.442;10.564;2023-12-04T15:21:21;0.13;75.43
80132;SHT30;69442;51.442;10.564;2023-12-04T15:23:47;0.14;75.75